This is the latest recevied weather packets stored in our database for station/object XW7RMR. If no packets are shown the sender has not sent any weather packets the latest 10 day(s).
| Time | Temp. | Humidity | Pressure | Rain* | Wind** | Luminosity | Snow |
|---|---|---|---|---|---|---|---|
| 1777307536 | 10° C | 79% | 1017.4 hPa | 0 mm | - | 169 W/m² | - |
| 1777307232 | 10° C | 80% | 1017.3 hPa | 0 mm | - | 176 W/m² | - |
| 1777306930 | 10° C | 80% | 1017.4 hPa | 0 mm | - | 236 W/m² | - |
| 1777306627 | 9.44° C | 82% | 1017.3 hPa | 0 mm | - | 222 W/m² | - |
| 1777306323 | 9.44° C | 81% | 1017.4 hPa | 0 mm | - | 203 W/m² | - |
| 1777306017 | 10° C | 80% | 1017.4 hPa | 0 mm | - | 193 W/m² | - |
| 1777305715 | 10° C | 82% | 1017.5 hPa | 0 mm | - | 167 W/m² | - |
| 1777305410 | 9.44° C | 83% | 1017.6 hPa | 0 mm | - | 165 W/m² | - |
| 1777305105 | 8.89° C | 85% | 1017.5 hPa | 0 mm | - | 152 W/m² | - |
| 1777304800 | 8.89° C | 84% | 1017.2 hPa | 0 mm | - | 164 W/m² | - |
| 1777304498 | 8.89° C | 85% | 1017.3 hPa | 0 mm | - | 177 W/m² | - |
| 1777304195 | 8.89° C | 87% | 1017.2 hPa | 0 mm | - | 204 W/m² | - |
| 1777303892 | 8.89° C | 84% | 1016.9 hPa | 0 mm | - | 222 W/m² | - |
| 1777303589 | 8.89° C | 85% | 1017 hPa | 0 mm | - | 168 W/m² | - |
| 1777303286 | 8.89° C | 86% | 1017 hPa | 0 mm | - | 148 W/m² | - |
| 1777302984 | 8.33° C | 89% | 1016.9 hPa | 0 mm | - | 141 W/m² | - |
| 1777302680 | 7.78° C | 90% | 1016.8 hPa | 0 mm | - | 126 W/m² | - |
| 1777302379 | 7.22° C | 91% | 1016.8 hPa | 0 mm | - | 84 W/m² | - |
| 1777302077 | 7.22° C | 90% | 1016.8 hPa | 0 mm | - | 84 W/m² | - |
| 1777301774 | 7.22° C | 90% | 1016.6 hPa | 0 mm | - | 83 W/m² | - |
| 1777301471 | 6.67° C | 91% | 1016.7 hPa | 0 mm | - | 78 W/m² | - |
| 1777301168 | 7.22° C | 90% | 1016.7 hPa | 0 mm | - | 72 W/m² | - |
| 1777300865 | 7.22° C | 90% | 1016.7 hPa | 0 mm | - | 82 W/m² | - |
| 1777300564 | 7.22° C | 90% | 1016.6 hPa | 0 mm | - | 87 W/m² | - |
| 1777300261 | 7.22° C | 91% | 1016.5 hPa | 0 mm | - | 80 W/m² | - |
* Rain latest hour (hover to see other rain measurements)
** Current wind speed in m/s (hover to see current wind gust speed)